Christmas Island, Australian Islands

5:55 AM CXT on May 31, 2015 (GMT +0700)
Christmas Island | | Change Station
CLOSE
Current Station
Personal Weather Station
Location: Christmas Island, WESTERN AUSTRALIA
Elevation: 732 ft
Nearby Weather Stations

Elev 732 ft 10.42 °S, 105.69 °E | Updated 1 minute ago

Mostly Cloudy
Mostly Cloudy
76.8 °F
Feels Like 78 °F
N
7.0
Wind Variable Wind from East
Gusts 11.0 mph

Today
High -- | Low -- °F
--% Chance of Precip.
Yesterday
High -- | Low -- °F
Precip. -- in
6:08 AM 5:41 PM
Waxing Gibbous, 92% visible
Pressure 29.89 in
Visibility 6.2 miles
Clouds Mostly Cloudy 1400 ft
Heat Index 78 °F
Dew Point 72 °F
Humidity 84%
Rainfall 0.71 in
Snow Depth Not available.
UV 0 out of 12
Pollen Not available.
Air Quality Not available.
Flu Activity Not available.
SPECI YPXM 302209Z AUTO 11008KT 9999 // BKN014 25/22 Q1012

More Conditions Fewer Conditions

Pressure 29.89 in
Visibility 6.2 miles
Clouds Mostly Cloudy 1400 ft
Heat Index 78 °F
Dew Point 72 °F
Humidity 84%
Rainfall 0.71 in
Snow Depth Not available.
UV 0 out of 12
Pollen Not available.
Air Quality Not available.
Flu Activity Not available.
SPECI YPXM 302209Z AUTO 11008KT 9999 // BKN014 25/22 Q1012

More Conditions Fewer Conditions

10-Day Weather Forecast

Almanac

Astronomy

May. 31, 2015 Rise Set
Actual Time
Civil Twilight
Nautical Twilight
Astronomical Twilight
Moon
Length of Visible Light
Length of Day
Tomorrow will be .
, % of the Moon is Illuminated

Today's Extremes

Country Highs Country Lows

Community

WunderPhotos

Upload Photos

1,825,609 photos uploaded!

WunderBlogs® & News

Nearby

Air Quality

  Air Quality AQ Index Pollutant
Not available.

Snow Depth

Station Depth Elevation

Earthquake Activity

City Distance Mag. Time & Date
Minimum magnitude displayed is 2.5.

Coastal Water Temperatures

Place Temperature

Stations

Nearby Weather Stations

Station Location Temp. Windchill Dew Point Humidity Wind Precip. Elev Updated Type